createdAt,value
2022-11-28T00:01:01.433Z,44.70
2022-11-28T00:04:05.271Z,44.30
2022-11-28T00:07:08.166Z,44.33
2022-11-28T00:10:11.545Z,44.27
2022-11-28T00:13:15.773Z,44.42
2022-11-28T00:16:21.554Z,45.42
2022-11-28T00:19:24.556Z,44.84
2022-11-28T00:22:29.470Z,44.34
2022-11-28T00:25:32.269Z,44.59
2022-11-28T00:28:36.800Z,44.44
2022-11-28T00:31:42.744Z,44.98
2022-11-28T00:34:46.045Z,44.87
2022-11-28T00:37:48.811Z,44.99
2022-11-28T00:40:58.933Z,44.73
2022-11-28T00:44:03.203Z,44.97
2022-11-28T00:47:06.010Z,45.29
2022-11-28T00:50:09.221Z,45.50
2022-11-28T00:53:11.986Z,45.79
2022-11-28T00:56:15.515Z,45.50
2022-11-28T00:59:19.673Z,45.50
2022-11-28T01:02:22.578Z,45.33
2022-11-28T01:05:25.386Z,45.67
2022-11-28T01:08:28.456Z,45.80
2022-11-28T01:11:31.752Z,45.86
2022-11-28T01:14:35.922Z,45.53
2022-11-28T01:17:38.739Z,45.76
2022-11-28T01:20:41.517Z,45.42
2022-11-28T01:23:44.476Z,45.64
2022-11-28T01:26:47.261Z,45.63
2022-11-28T01:29:51.566Z,45.50
2022-11-28T01:32:54.294Z,45.57
2022-11-28T01:35:57.813Z,45.70
2022-11-28T01:39:00.746Z,45.87
2022-11-28T01:42:03.497Z,45.74
2022-11-28T01:45:13.073Z,45.55
2022-11-28T01:48:19.362Z,45.59
2022-11-28T01:51:22.358Z,45.65
2022-11-28T01:54:26.727Z,45.67
2022-11-28T01:57:29.579Z,45.63
2022-11-28T02:00:34.813Z,45.65
2022-11-28T02:03:41.918Z,45.97
2022-11-28T02:06:44.873Z,45.77
2022-11-28T02:09:47.675Z,46.01
2022-11-28T02:13:12.291Z,45.75
2022-11-28T02:16:26.812Z,45.74
2022-11-28T02:19:44.446Z,45.96
2022-11-28T02:22:50.002Z,46.21
2022-11-28T02:26:10.665Z,46.70
2022-11-28T02:29:29.310Z,46.29
2022-11-28T02:32:49.960Z,46.12
2022-11-28T02:35:58.153Z,45.81
2022-11-28T02:39:07.141Z,45.50
2022-11-28T02:42:14.208Z,45.14
2022-11-28T02:45:20.992Z,45.27
2022-11-28T02:48:28.205Z,44.72
2022-11-28T02:51:35.232Z,44.80
2022-11-28T02:54:39.671Z,44.65
2022-11-28T02:57:43.805Z,44.85
2022-11-28T03:00:47.577Z,44.79
2022-11-28T03:03:57.681Z,44.40
2022-11-28T03:07:07.703Z,44.43
2022-11-28T03:10:15.757Z,44.17
2022-11-28T03:13:23.615Z,44.34
2022-11-28T03:16:28.598Z,44.54
2022-11-28T03:19:33.941Z,44.30
2022-11-28T03:22:42.166Z,43.88
2022-11-28T03:25:56.465Z,44.28
2022-11-28T03:29:02.114Z,44.25
2022-11-28T03:32:07.836Z,44.14
2022-11-28T03:35:12.985Z,44.10
2022-11-28T03:38:19.814Z,44.29
2022-11-28T03:41:25.101Z,43.95
2022-11-28T03:44:29.756Z,44.08
2022-11-28T03:47:35.748Z,43.99
2022-11-28T03:50:43.128Z,43.59
2022-11-28T03:53:51.691Z,44.08
2022-11-28T03:56:58.273Z,44.09
2022-11-28T04:00:02.477Z,43.83
2022-11-28T04:03:11.829Z,43.96
2022-11-28T04:06:17.868Z,43.75
2022-11-28T04:09:25.170Z,43.83
2022-11-28T04:12:32.608Z,43.62
2022-11-28T04:15:39.155Z,43.73
2022-11-28T04:18:48.057Z,43.55
2022-11-28T04:21:54.386Z,43.92
2022-11-28T04:24:59.784Z,43.60
2022-11-28T04:28:05.322Z,43.54
2022-11-28T04:31:08.650Z,43.52
2022-11-28T04:34:13.012Z,43.80
2022-11-28T04:37:16.871Z,43.71
2022-11-28T04:40:22.109Z,43.12
2022-11-28T04:43:26.462Z,43.58
2022-11-28T04:46:31.864Z,43.67
2022-11-28T04:49:35.001Z,43.60
2022-11-28T04:52:40.340Z,43.65
2022-11-28T04:55:46.978Z,43.60
2022-11-28T04:58:50.729Z,43.65
2022-11-28T05:01:53.634Z,43.72
2022-11-28T05:04:56.630Z,43.47
2022-11-28T05:08:00.045Z,43.54
2022-11-28T05:11:04.286Z,43.86
2022-11-28T05:14:07.019Z,43.94
2022-11-28T05:17:09.882Z,43.80
2022-11-28T05:20:12.946Z,43.98
2022-11-28T05:23:15.691Z,44.13
2022-11-28T05:26:20.583Z,44.11
2022-11-28T05:29:24.949Z,44.19
2022-11-28T05:32:30.034Z,44.30
2022-11-28T05:35:32.831Z,44.38
2022-11-28T05:38:36.012Z,44.44
2022-11-28T05:41:40.169Z,43.91
2022-11-28T05:44:43.034Z,44.30
2022-11-28T05:47:45.818Z,44.32
2022-11-28T05:50:50.750Z,44.32
2022-11-28T05:53:53.513Z,44.29
2022-11-28T05:56:57.734Z,44.25
2022-11-28T06:00:00.485Z,44.31
2022-11-28T06:03:03.310Z,44.61
2022-11-28T06:06:06.264Z,44.43
2022-11-28T06:09:09.096Z,44.50
2022-11-28T06:12:13.514Z,44.64
2022-11-28T06:15:16.694Z,44.47
2022-11-28T06:18:19.460Z,44.58
2022-11-28T06:21:22.776Z,44.85
2022-11-28T06:24:25.657Z,44.83
2022-11-28T06:27:30.057Z,44.68
2022-11-28T06:30:32.892Z,44.75
2022-11-28T06:33:36.655Z,44.88
2022-11-28T06:36:39.745Z,44.72
2022-11-28T06:39:42.713Z,44.83
2022-11-28T06:42:50.423Z,44.92
2022-11-28T06:45:53.246Z,44.96
2022-11-28T06:48:56.099Z,45.08
2022-11-28T06:51:58.843Z,44.95
2022-11-28T06:55:01.643Z,45.00
2022-11-28T06:58:05.837Z,44.88
2022-11-28T07:01:09.664Z,45.09
2022-11-28T07:04:12.540Z,45.02
2022-11-28T07:07:16.815Z,44.96
2022-11-28T07:10:19.914Z,45.06
2022-11-28T07:13:24.414Z,45.19
2022-11-28T07:16:28.300Z,45.02
2022-11-28T07:19:31.097Z,44.86
2022-11-28T07:22:33.816Z,44.90
2022-11-28T07:25:36.634Z,44.41
2022-11-28T07:28:41.421Z,44.12
2022-11-28T07:31:44.298Z,44.01
2022-11-28T07:34:50.100Z,43.75
2022-11-28T07:37:53.193Z,43.86
2022-11-28T07:40:56.003Z,44.01
2022-11-28T07:44:01.309Z,43.68
2022-11-28T07:47:04.645Z,43.75
2022-11-28T07:50:08.131Z,43.43
2022-11-28T07:53:11.225Z,43.58
2022-11-28T07:56:15.299Z,43.61
2022-11-28T07:59:19.500Z,43.35
2022-11-28T17:20:29.384Z,43.96
2022-11-28T17:23:32.433Z,43.59
2022-11-28T17:26:35.195Z,43.80
2022-11-28T17:29:37.997Z,43.36
2022-11-28T17:32:44.146Z,43.43
2022-11-28T17:35:51.039Z,43.53
2022-11-28T17:38:53.850Z,43.60
2022-11-28T17:41:57.265Z,43.60
2022-11-28T17:45:00.044Z,43.62
2022-11-28T17:48:02.836Z,43.60
2022-11-28T17:51:07.061Z,42.75
2022-11-28T17:54:11.343Z,43.79
2022-11-28T17:57:14.305Z,44.09
2022-11-28T18:00:17.687Z,43.63
2022-11-28T18:03:20.561Z,43.70
2022-11-28T18:06:24.790Z,43.76
2022-11-28T18:09:29.233Z,42.97
2022-11-28T18:12:32.359Z,43.61
2022-11-28T18:15:36.075Z,43.65
2022-11-28T18:18:38.897Z,43.67
2022-11-28T18:21:43.125Z,43.68
2022-11-28T18:24:45.898Z,43.77
2022-11-28T18:27:48.710Z,43.85
2022-11-28T18:30:51.487Z,43.62
2022-11-28T18:33:58.910Z,43.81
2022-11-28T18:37:05.925Z,43.74
2022-11-28T18:40:09.726Z,43.73
2022-11-28T18:43:13.128Z,43.49
2022-11-28T18:46:17.537Z,43.79
2022-11-28T18:49:20.491Z,43.71
2022-11-28T18:52:24.788Z,43.93
2022-11-28T18:55:27.548Z,43.74
2022-11-28T18:58:30.787Z,43.90
2022-11-28T19:01:35.508Z,43.87
2022-11-28T19:04:41.455Z,43.78
2022-11-28T19:07:45.750Z,43.86
2022-11-28T19:10:48.666Z,43.97
2022-11-28T19:13:53.590Z,43.97
2022-11-28T19:16:56.963Z,44.06
2022-11-28T19:19:59.841Z,43.74
2022-11-28T19:23:03.984Z,43.92
2022-11-28T19:26:08.565Z,44.42
2022-11-28T19:29:11.369Z,44.38
2022-11-28T19:32:14.251Z,45.18
2022-11-28T19:35:17.276Z,44.82
2022-11-28T19:38:21.511Z,45.08
2022-11-28T19:41:24.758Z,44.99
2022-11-28T19:44:29.471Z,44.59
2022-11-28T19:47:32.300Z,44.28
2022-11-28T19:50:35.172Z,44.89
2022-11-28T19:53:41.526Z,44.37
2022-11-28T19:56:44.565Z,44.55
2022-11-28T19:59:47.603Z,45.07
2022-11-28T20:02:50.631Z,45.42
2022-11-28T20:05:53.393Z,45.13
2022-11-28T20:08:59.856Z,45.84
2022-11-28T20:12:02.623Z,45.28
2022-11-28T20:15:05.870Z,45.19
2022-11-28T20:18:08.709Z,44.70
2022-11-28T20:21:12.914Z,44.57
2022-11-28T20:24:17.385Z,43.92
2022-11-28T20:27:20.164Z,44.02
2022-11-28T20:30:22.985Z,43.25
2022-11-28T20:33:25.697Z,44.66
2022-11-28T20:36:29.849Z,44.71
2022-11-28T20:39:34.024Z,44.58
2022-11-28T20:42:39.975Z,44.54
2022-11-28T20:45:43.098Z,44.39
2022-11-28T20:48:45.994Z,44.14
2022-11-28T20:51:50.337Z,44.11
2022-11-28T20:54:54.469Z,43.90
2022-11-28T20:57:57.308Z,44.21
2022-11-28T21:01:00.302Z,43.98
2022-11-28T21:04:04.281Z,43.82
2022-11-28T21:07:06.986Z,44.12
2022-11-28T21:10:11.625Z,43.40
2022-11-28T21:13:14.438Z,43.76
2022-11-28T21:16:18.831Z,43.65
2022-11-28T21:19:21.860Z,43.73
2022-11-28T21:22:24.750Z,43.26
2022-11-28T21:25:28.929Z,43.51
2022-11-28T21:28:31.633Z,43.08
2022-11-28T21:31:35.449Z,43.49
2022-11-28T21:34:38.394Z,43.21
2022-11-28T21:37:41.148Z,43.19
2022-11-28T21:40:52.267Z,42.88
2022-11-28T21:43:55.411Z,42.93
2022-11-28T21:46:58.231Z,42.40
2022-11-28T21:50:01.027Z,42.99
2022-11-28T21:53:03.772Z,43.86
2022-11-28T21:56:08.329Z,43.48
2022-11-28T21:59:11.082Z,43.04
2022-11-28T22:02:15.227Z,43.16
2022-11-28T22:05:18.125Z,43.19
2022-11-28T22:08:21.114Z,42.90
2022-11-28T22:11:25.615Z,43.28
2022-11-28T22:14:36.407Z,43.56
2022-11-28T22:17:39.488Z,43.64
2022-11-28T22:20:45.750Z,42.73
2022-11-28T22:23:50.752Z,42.91
2022-11-28T22:26:55.064Z,43.69
2022-11-28T22:29:57.873Z,43.27
2022-11-28T22:33:00.713Z,42.62
2022-11-28T22:36:04.683Z,43.00
2022-11-28T22:39:07.499Z,43.94
2022-11-28T22:42:11.648Z,43.53
2022-11-28T22:45:14.421Z,43.52
2022-11-28T22:48:19.255Z,43.88
2022-11-28T22:51:24.266Z,43.74
2022-11-28T22:54:27.051Z,43.71
2022-11-28T22:57:31.229Z,44.02
2022-11-28T23:00:33.960Z,44.01
2022-11-28T23:03:37.093Z,44.48
2022-11-28T23:06:39.938Z,44.99
2022-11-28T23:09:42.752Z,44.11
2022-11-28T23:12:46.880Z,45.09
2022-11-28T23:15:52.776Z,45.13
2022-11-28T23:18:56.796Z,45.87
2022-11-28T23:21:59.638Z,45.75
2022-11-28T23:25:02.397Z,46.44
2022-11-28T23:28:07.334Z,46.56
2022-11-28T23:31:12.192Z,46.35
2022-11-28T23:34:15.300Z,46.51
2022-11-28T23:37:18.486Z,46.46
2022-11-28T23:40:21.250Z,45.53
2022-11-28T23:43:25.421Z,45.69
2022-11-28T23:46:28.554Z,45.88
2022-11-28T23:49:31.359Z,46.02
2022-11-28T23:52:34.133Z,45.52
2022-11-28T23:55:36.966Z,45.34
2022-11-28T23:58:42.630Z,45.25
